sensor_id;sensor_type;location;lat;lon;timestamp;pressure;altitude;pressure_sealevel;temperature;humidity
60307;BME280;46155;52.364;6.580;2023-04-25T03:02:51;100764.94;;;5.89;100.00
60307;BME280;46155;52.364;6.580;2023-04-25T03:05:17;100769.03;;;5.97;100.00
60307;BME280;46155;52.364;6.580;2023-04-25T03:07:42;100767.50;;;5.99;100.00
60307;BME280;46155;52.364;6.580;2023-04-25T03:10:09;100751.47;;;5.94;100.00
60307;BME280;46155;52.364;6.580;2023-04-25T03:12:34;100767.06;;;6.05;100.00
60307;BME280;46155;52.364;6.580;2023-04-25T03:14:59;100762.50;;;6.02;100.00
60307;BME280;46155;52.364;6.580;2023-04-25T03:17:25;100763.28;;;6.01;100.00
60307;BME280;46155;52.364;6.580;2023-04-25T03:19:50;100765.22;;;6.03;100.00
60307;BME280;46155;52.364;6.580;2023-04-25T03:22:15;100771.38;;;6.04;100.00
60307;BME280;46155;52.364;6.580;2023-04-25T03:24:41;100780.22;;;6.06;100.00
60307;BME280;46155;52.364;6.580;2023-04-25T03:27:06;100769.97;;;5.97;100.00
60307;BME280;46155;52.364;6.580;2023-04-25T03:29:31;100780.53;;;5.99;100.00
60307;BME280;46155;52.364;6.580;2023-04-25T03:31:57;100779.19;;;5.94;100.00
60307;BME280;46155;52.364;6.580;2023-04-25T03:34:22;100785.09;;;5.91;100.00
60307;BME280;46155;52.364;6.580;2023-04-25T03:36:49;100779.19;;;5.94;100.00
60307;BME280;46155;52.364;6.580;2023-04-25T03:39:14;100788.06;;;5.96;100.00
60307;BME280;46155;52.364;6.580;2023-04-25T03:41:39;100787.28;;;5.97;100.00
60307;BME280;46155;52.364;6.580;2023-04-25T03:44:05;100780.25;;;5.96;100.00
60307;BME280;46155;52.364;6.580;2023-04-25T03:46:30;100775.03;;;5.96;100.00
60307;BME280;46155;52.364;6.580;2023-04-25T03:48:55;100781.94;;;5.95;100.00
60307;BME280;46155;52.364;6.580;2023-04-25T03:51:20;100788.56;;;6.02;100.00
60307;BME280;46155;52.364;6.580;2023-04-25T03:53:46;100795.31;;;6.10;100.00
60307;BME280;46155;52.364;6.580;2023-04-25T03:56:11;100793.25;;;6.06;100.00
60307;BME280;46155;52.364;6.580;2023-04-25T03:58:36;100800.81;;;6.03;100.00
60307;BME280;46155;52.364;6.580;2023-04-25T04:01:02;100793.53;;;5.99;100.00
60307;BME280;46155;52.364;6.580;2023-04-25T04:03:33;100782.50;;;5.91;100.00
60307;BME280;46155;52.364;6.580;2023-04-25T04:05:59;100785.75;;;5.89;100.00
60307;BME280;46155;52.364;6.580;2023-04-25T04:08:25;100800.47;;;5.88;100.00
60307;BME280;46155;52.364;6.580;2023-04-25T04:10:50;100793.47;;;5.87;100.00
60307;BME280;46155;52.364;6.580;2023-04-25T04:13:15;100801.28;;;5.87;100.00
60307;BME280;46155;52.364;6.580;2023-04-25T04:15:40;100806.38;;;5.85;100.00
60307;BME280;46155;52.364;6.580;2023-04-25T04:18:06;100802.97;;;5.86;100.00
60307;BME280;46155;52.364;6.580;2023-04-25T04:20:31;100795.69;;;5.82;100.00
60307;BME280;46155;52.364;6.580;2023-04-25T04:22:57;100807.50;;;5.89;100.00
60307;BME280;46155;52.364;6.580;2023-04-25T04:25:22;100806.22;;;5.84;100.00
60307;BME280;46155;52.364;6.580;2023-04-25T04:27:47;100809.66;;;5.73;100.00
60307;BME280;46155;52.364;6.580;2023-04-25T04:30:13;100812.66;;;5.77;100.00
60307;BME280;46155;52.364;6.580;2023-04-25T04:32:38;100820.84;;;5.82;100.00
60307;BME280;46155;52.364;6.580;2023-04-25T04:35:04;100815.50;;;5.80;100.00
60307;BME280;46155;52.364;6.580;2023-04-25T04:37:30;100808.22;;;5.76;100.00
60307;BME280;46155;52.364;6.580;2023-04-25T04:39:55;100820.19;;;5.84;100.00
60307;BME280;46155;52.364;6.580;2023-04-25T04:42:21;100828.00;;;5.84;100.00
60307;BME280;46155;52.364;6.580;2023-04-25T04:44:46;100826.81;;;5.81;100.00
60307;BME280;46155;52.364;6.580;2023-04-25T04:47:11;100828.94;;;5.75;100.00
60307;BME280;46155;52.364;6.580;2023-04-25T04:49:37;100841.25;;;5.88;100.00
60307;BME280;46155;52.364;6.580;2023-04-25T04:52:03;100827.22;;;5.85;100.00
60307;BME280;46155;52.364;6.580;2023-04-25T04:54:28;100845.41;;;5.96;100.00
60307;BME280;46155;52.364;6.580;2023-04-25T04:56:53;100843.56;;;5.95;100.00
60307;BME280;46155;52.364;6.580;2023-04-25T04:59:19;100848.66;;;5.93;100.00
60307;BME280;46155;52.364;6.580;2023-04-25T05:01:44;100852.44;;;5.97;100.00
60307;BME280;46155;52.364;6.580;2023-04-25T05:04:10;100858.97;;;5.92;100.00
60307;BME280;46155;52.364;6.580;2023-04-25T05:06:36;100861.56;;;5.92;100.00
60307;BME280;46155;52.364;6.580;2023-04-25T05:09:01;100861.81;;;5.95;100.00
60307;BME280;46155;52.364;6.580;2023-04-25T05:11:26;100855.81;;;5.96;100.00
60307;BME280;46155;52.364;6.580;2023-04-25T05:13:52;100858.97;;;5.92;100.00
60307;BME280;46155;52.364;6.580;2023-04-25T05:16:19;100861.81;;;5.95;100.00
60307;BME280;46155;52.364;6.580;2023-04-25T05:18:44;100860.78;;;5.93;100.00
60307;BME280;46155;52.364;6.580;2023-04-25T05:21:10;100868.06;;;5.97;100.00
60307;BME280;46155;52.364;6.580;2023-04-25T05:23:35;100877.28;;;6.03;100.00
60307;BME280;46155;52.364;6.580;2023-04-25T05:26:00;100891.25;;;6.04;100.00
60307;BME280;46155;52.364;6.580;2023-04-25T05:28:26;100873.00;;;5.94;100.00
60307;BME280;46155;52.364;6.580;2023-04-25T05:30:51;100890.34;;;6.03;100.00
60307;BME280;46155;52.364;6.580;2023-04-25T05:33:17;100881.88;;;5.96;100.00
60307;BME280;46155;52.364;6.580;2023-04-25T05:35:43;100893.06;;;6.05;100.00
60307;BME280;46155;52.364;6.580;2023-04-25T05:38:08;100900.88;;;6.05;100.00
60307;BME280;46155;52.364;6.580;2023-04-25T05:40:34;100907.44;;;6.00;100.00
60307;BME280;46155;52.364;6.580;2023-04-25T05:42:59;100898.16;;;5.93;100.00
60307;BME280;46155;52.364;6.580;2023-04-25T05:45:25;100905.97;;;6.03;100.00
60307;BME280;46155;52.364;6.580;2023-04-25T05:47:50;100908.44;;;6.02;100.00
60307;BME280;46155;52.364;6.580;2023-04-25T05:50:15;100907.25;;;6.09;100.00
60307;BME280;46155;52.364;6.580;2023-04-25T05:52:40;100915.19;;;6.10;100.00
60307;BME280;46155;52.364;6.580;2023-04-25T05:55:06;100910.75;;;6.09;100.00
60307;BME280;46155;52.364;6.580;2023-04-25T05:57:31;100911.56;;;6.08;100.00
60307;BME280;46155;52.364;6.580;2023-04-25T05:59:57;100919.63;;;6.11;100.00
60307;BME280;46155;52.364;6.580;2023-04-25T06:02:22;100921.94;;;6.18;100.00
60307;BME280;46155;52.364;6.580;2023-04-25T06:04:49;100924.13;;;6.24;100.00
60307;BME280;46155;52.364;6.580;2023-04-25T06:07:15;100929.03;;;6.31;100.00
60307;BME280;46155;52.364;6.580;2023-04-25T06:09:40;100927.34;;;6.32;100.00
60307;BME280;46155;52.364;6.580;2023-04-25T06:12:06;100931.78;;;6.33;100.00
60307;BME280;46155;52.364;6.580;2023-04-25T06:14:32;100935.16;;;6.32;100.00
60307;BME280;46155;52.364;6.580;2023-04-25T06:16:57;100937.09;;;6.34;100.00
60307;BME280;46155;52.364;6.580;2023-04-25T06:19:22;100936.22;;;6.34;100.00
60307;BME280;46155;52.364;6.580;2023-04-25T06:21:48;100936.91;;;6.43;100.00
60307;BME280;46155;52.364;6.580;2023-04-25T06:24:13;100942.94;;;6.42;100.00
60307;BME280;46155;52.364;6.580;2023-04-25T06:26:38;100926.13;;;6.38;100.00
60307;BME280;46155;52.364;6.580;2023-04-25T06:29:04;100920.25;;;6.41;100.00
60307;BME280;46155;52.364;6.580;2023-04-25T06:31:29;100948.13;;;6.86;100.00
60307;BME280;46155;52.364;6.580;2023-04-25T06:33:57;100954.78;;;7.05;100.00
60307;BME280;46155;52.364;6.580;2023-04-25T06:36:22;100956.69;;;7.41;100.00
60307;BME280;46155;52.364;6.580;2023-04-25T06:38:50;100954.09;;;7.65;100.00
60307;BME280;46155;52.364;6.580;2023-04-25T06:41:16;100961.47;;;7.59;100.00
60307;BME280;46155;52.364;6.580;2023-04-25T06:43:41;100965.69;;;7.57;100.00
60307;BME280;46155;52.364;6.580;2023-04-25T06:46:06;100951.59;;;7.55;100.00
60307;BME280;46155;52.364;6.580;2023-04-25T06:48:31;100960.81;;;7.62;100.00
60307;BME280;46155;52.364;6.580;2023-04-25T06:50:57;100967.47;;;7.46;100.00
60307;BME280;46155;52.364;6.580;2023-04-25T06:53:22;100950.31;;;7.26;100.00
60307;BME280;46155;52.364;6.580;2023-04-25T06:55:47;100962.69;;;7.40;100.00
60307;BME280;46155;52.364;6.580;2023-04-25T06:58:13;100972.81;;;7.48;100.00
60307;BME280;46155;52.364;6.580;2023-04-25T07:00:38;100970.09;;;7.46;100.00
60307;BME280;46155;52.364;6.580;2023-04-25T07:03:03;100979.28;;;7.41;98.54
60307;BME280;46155;52.364;6.580;2023-04-25T07:05:29;100966.66;;;7.35;99.67
60307;BME280;46155;52.364;6.580;2023-04-25T07:07:54;100966.97;;;7.74;100.00
60307;BME280;46155;52.364;6.580;2023-04-25T07:10:20;100973.31;;;7.78;95.43
60307;BME280;46155;52.364;6.580;2023-04-25T07:12:46;100974.34;;;7.91;95.49
60307;BME280;46155;52.364;6.580;2023-04-25T07:15:11;100976.47;;;8.09;96.00
60307;BME280;46155;52.364;6.580;2023-04-25T07:17:37;100974.78;;;8.09;95.09
60307;BME280;46155;52.364;6.580;2023-04-25T07:20:03;100977.72;;;8.38;94.35
60307;BME280;46155;52.364;6.580;2023-04-25T07:22:29;100982.72;;;8.23;92.54
60307;BME280;46155;52.364;6.580;2023-04-25T07:24:55;100983.25;;;8.42;92.77
60307;BME280;46155;52.364;6.580;2023-04-25T07:27:20;100969.66;;;8.23;93.79
60307;BME280;46155;52.364;6.580;2023-04-25T07:29:45;100985.09;;;8.32;89.63
60307;BME280;46155;52.364;6.580;2023-04-25T07:32:11;100977.03;;;8.28;93.87
60307;BME280;46155;52.364;6.580;2023-04-25T07:34:38;100985.22;;;8.21;92.26
60307;BME280;46155;52.364;6.580;2023-04-25T07:37:04;100982.28;;;8.17;90.19
60307;BME280;46155;52.364;6.580;2023-04-25T07:39:29;100992.78;;;8.42;91.75
60307;BME280;46155;52.364;6.580;2023-04-25T07:41:55;100997.28;;;8.80;89.58
60307;BME280;46155;52.364;6.580;2023-04-25T07:44:21;100990.94;;;8.76;85.63
60307;BME280;46155;52.364;6.580;2023-04-25T07:46:46;100996.66;;;8.59;84.13
60307;BME280;46155;52.364;6.580;2023-04-25T07:49:12;100990.81;;;8.14;79.47
60307;BME280;46155;52.364;6.580;2023-04-25T07:51:37;101009.91;;;8.01;80.39
60307;BME280;46155;52.364;6.580;2023-04-25T07:54:02;101003.31;;;8.06;82.37
60307;BME280;46155;52.364;6.580;2023-04-25T07:56:28;101007.19;;;8.00;82.02
60307;BME280;46155;52.364;6.580;2023-04-25T07:58:53;101013.66;;;7.93;84.91
60307;BME280;46155;52.364;6.580;2023-04-25T08:01:18;101019.34;;;7.87;86.33
60307;BME280;46155;52.364;6.580;2023-04-25T08:03:45;101011.50;;;7.99;85.82
60307;BME280;46155;52.364;6.580;2023-04-25T08:06:11;101022.41;;;7.93;85.60
60307;BME280;46155;52.364;6.580;2023-04-25T08:08:36;101026.72;;;7.93;85.59
60307;BME280;46155;52.364;6.580;2023-04-25T08:11:01;101027.19;;;8.11;85.02
60307;BME280;46155;52.364;6.580;2023-04-25T08:13:26;101027.53;;;8.16;82.14
60307;BME280;46155;52.364;6.580;2023-04-25T08:15:52;101038.09;;;8.17;83.46
60307;BME280;46155;52.364;6.580;2023-04-25T08:18:17;101033.31;;;8.23;85.77
60307;BME280;46155;52.364;6.580;2023-04-25T08:20:43;101044.34;;;8.43;82.22
60307;BME280;46155;52.364;6.580;2023-04-25T08:23:08;101037.41;;;8.32;84.43
60307;BME280;46155;52.364;6.580;2023-04-25T08:25:35;101041.75;;;8.31;84.30
60307;BME280;46155;52.364;6.580;2023-04-25T08:28:01;101052.44;;;8.22;84.92
60307;BME280;46155;52.364;6.580;2023-04-25T08:30:28;101038.13;;;8.05;86.10
60307;BME280;46155;52.364;6.580;2023-04-25T08:32:53;101049.25;;;7.91;86.41
60307;BME280;46155;52.364;6.580;2023-04-25T08:35:19;101059.38;;;8.10;87.49
60307;BME280;46155;52.364;6.580;2023-04-25T08:37:45;101042.91;;;8.47;86.34
60307;BME280;46155;52.364;6.580;2023-04-25T08:40:14;101050.22;;;8.76;82.90
60307;BME280;46155;52.364;6.580;2023-04-25T08:42:41;101063.41;;;8.89;83.05
60307;BME280;46155;52.364;6.580;2023-04-25T08:45:08;101065.59;;;8.71;78.31
60307;BME280;46155;52.364;6.580;2023-04-25T08:47:34;101073.03;;;8.65;79.93
60307;BME280;46155;52.364;6.580;2023-04-25T08:50:02;101074.50;;;8.73;78.81
60307;BME280;46155;52.364;6.580;2023-04-25T08:52:28;101057.13;;;8.87;81.87
60307;BME280;46155;52.364;6.580;2023-04-25T08:54:57;101078.97;;;9.11;78.04
60307;BME280;46155;52.364;6.580;2023-04-25T08:57:23;101081.09;;;9.17;78.39
60307;BME280;46155;52.364;6.580;2023-04-25T08:59:48;101096.50;;;9.38;78.99
60307;BME280;46155;52.364;6.580;2023-04-25T09:02:14;101090.13;;;9.59;80.51
60307;BME280;46155;52.364;6.580;2023-04-25T09:04:43;101092.34;;;9.53;76.48
60307;BME280;46155;52.364;6.580;2023-04-25T09:07:09;101101.06;;;9.65;73.33
60307;BME280;46155;52.364;6.580;2023-04-25T09:09:34;101094.69;;;9.62;73.44
60307;BME280;46155;52.364;6.580;2023-04-25T09:12:01;101092.81;;;9.73;72.41
60307;BME280;46155;52.364;6.580;2023-04-25T09:14:27;101104.47;;;10.03;77.24
60307;BME280;46155;52.364;6.580;2023-04-25T09:19:26;101109.31;;;9.97;71.32
60307;BME280;46155;52.364;6.580;2023-04-25T09:21:55;101119.88;;;9.35;72.82
60307;BME280;46155;52.364;6.580;2023-04-25T09:26:57;101116.59;;;8.53;79.62
60307;BME280;46155;52.364;6.580;2023-04-25T09:29:31;101123.09;;;8.46;80.82
60307;BME280;46155;52.364;6.580;2023-04-25T09:34:39;101137.28;;;8.38;82.59
60307;BME280;46155;52.364;6.580;2023-04-25T09:37:05;101122.97;;;8.68;81.12
60307;BME280;46155;52.364;6.580;2023-04-25T09:39:32;101120.25;;;8.55;81.08
60307;BME280;46155;52.364;6.580;2023-04-25T09:41:58;101136.75;;;8.54;80.09
60307;BME280;46155;52.364;6.580;2023-04-25T09:44:24;101132.63;;;8.57;81.74
60307;BME280;46155;52.364;6.580;2023-04-25T09:46:50;101137.09;;;8.58;76.87
60307;BME280;46155;52.364;6.580;2023-04-25T09:49:20;101132.53;;;8.79;81.98
60307;BME280;46155;52.364;6.580;2023-04-25T09:51:56;101138.19;;;8.98;74.94
60307;BME280;46155;52.364;6.580;2023-04-25T09:54:23;101135.66;;;9.11;77.80
60307;BME280;46155;52.364;6.580;2023-04-25T09:56:51;101147.63;;;9.44;78.28
60307;BME280;46155;52.364;6.580;2023-04-25T09:59:19;101141.22;;;9.53;72.51
60307;BME280;46155;52.364;6.580;2023-04-25T10:01:45;101148.59;;;9.33;67.75
60307;BME280;46155;52.364;6.580;2023-04-25T10:04:11;101139.88;;;9.46;71.58
60307;BME280;46155;52.364;6.580;2023-04-25T10:06:37;101141.97;;;9.63;74.09
60307;BME280;46155;52.364;6.580;2023-04-25T10:09:04;101153.81;;;9.83;68.03
60307;BME280;46155;52.364;6.580;2023-04-25T10:11:32;101149.31;;;9.81;63.60
60307;BME280;46155;52.364;6.580;2023-04-25T10:14:00;101156.31;;;9.94;62.72
60307;BME280;46155;52.364;6.580;2023-04-25T10:16:26;101154.66;;;9.57;61.92
60307;BME280;46155;52.364;6.580;2023-04-25T10:18:52;101141.25;;;9.41;62.24
60307;BME280;46155;52.364;6.580;2023-04-25T10:21:17;101159.22;;;9.60;64.09
60307;BME280;46155;52.364;6.580;2023-04-25T10:23:43;101164.44;;;9.60;66.22
60307;BME280;46155;52.364;6.580;2023-04-25T10:26:10;101162.72;;;9.86;70.10
60307;BME280;46155;52.364;6.580;2023-04-25T10:28:57;101166.44;;;10.14;72.00
60307;BME280;46155;52.364;6.580;2023-04-25T10:31:26;101175.53;;;10.45;70.19
60307;BME280;46155;52.364;6.580;2023-04-25T10:33:53;101183.72;;;10.24;68.54
60307;BME280;46155;52.364;6.580;2023-04-25T10:36:21;101193.75;;;9.79;66.61
60307;BME280;46155;52.364;6.580;2023-04-25T10:38:48;101188.94;;;9.23;70.22
60307;BME280;46155;52.364;6.580;2023-04-25T10:41:14;101192.59;;;9.13;76.19
60307;BME280;46155;52.364;6.580;2023-04-25T10:43:41;101194.69;;;8.82;75.59
60307;BME280;46155;52.364;6.580;2023-04-25T10:46:14;101191.59;;;8.64;75.99
60307;BME280;46155;52.364;6.580;2023-04-25T10:48:45;101196.50;;;8.59;76.10
60307;BME280;46155;52.364;6.580;2023-04-25T10:51:16;101188.28;;;8.67;76.52
60307;BME280;46155;52.364;6.580;2023-04-25T10:53:46;101186.47;;;8.89;77.21
60307;BME280;46155;52.364;6.580;2023-04-25T10:56:32;101182.06;;;9.25;79.72
60307;BME280;46155;52.364;6.580;2023-04-25T10:59:15;101189.66;;;9.46;76.29
60307;BME280;46155;52.364;6.580;2023-04-25T11:01:43;101192.78;;;9.28;73.06
60307;BME280;46155;52.364;6.580;2023-04-25T11:09:24;101184.19;;;9.80;68.59
60307;BME280;46155;52.364;6.580;2023-04-25T11:11:57;101179.38;;;9.86;67.55
60307;BME280;46155;52.364;6.580;2023-04-25T11:14:24;101176.94;;;9.89;67.55
60307;BME280;46155;52.364;6.580;2023-04-25T11:16:56;101175.06;;;9.87;67.12
60307;BME280;46155;52.364;6.580;2023-04-25T11:19:23;101184.09;;;10.04;67.87
60307;BME280;46155;52.364;6.580;2023-04-25T11:21:49;101170.50;;;10.23;65.62
60307;BME280;46155;52.364;6.580;2023-04-25T11:24:16;101188.56;;;10.31;69.30
60307;BME280;46155;52.364;6.580;2023-04-25T11:26:42;101183.00;;;10.65;67.56
60307;BME280;46155;52.364;6.580;2023-04-25T11:29:08;101195.59;;;10.19;70.85
60307;BME280;46155;52.364;6.580;2023-04-25T11:31:33;101209.50;;;9.42;73.82
60307;BME280;46155;52.364;6.580;2023-04-25T11:33:58;101205.31;;;8.38;79.40
60307;BME280;46155;52.364;6.580;2023-04-25T11:36:24;101211.88;;;8.21;86.98
60307;BME280;46155;52.364;6.580;2023-04-25T11:38:50;101203.84;;;8.07;89.18
60307;BME280;46155;52.364;6.580;2023-04-25T11:41:17;101205.47;;;8.17;87.98
60307;BME280;46155;52.364;6.580;2023-04-25T11:43:43;101204.59;;;8.17;89.00
60307;BME280;46155;52.364;6.580;2023-04-25T11:46:09;101220.84;;;8.24;89.51
60307;BME280;46155;52.364;6.580;2023-04-25T11:48:39;101216.41;;;8.23;87.89
60307;BME280;46155;52.364;6.580;2023-04-25T11:51:05;101215.16;;;8.52;86.62
60307;BME280;46155;52.364;6.580;2023-04-25T11:53:30;101210.16;;;8.79;83.35
60307;BME280;46155;52.364;6.580;2023-04-25T11:55:56;101202.19;;;8.89;80.82
60307;BME280;46155;52.364;6.580;2023-04-25T11:58:21;101206.16;;;9.08;78.42
60307;BME280;46155;52.364;6.580;2023-04-25T12:00:47;101210.66;;;9.34;74.40
60307;BME280;46155;52.364;6.580;2023-04-25T12:03:12;101216.34;;;9.28;75.26
60307;BME280;46155;52.364;6.580;2023-04-25T12:05:37;101214.41;;;9.38;76.74
60307;BME280;46155;52.364;6.580;2023-04-25T12:08:14;101218.03;;;9.40;76.52
60307;BME280;46155;52.364;6.580;2023-04-25T12:10:42;101215.53;;;9.53;73.50
60307;BME280;46155;52.364;6.580;2023-04-25T12:15:45;101213.69;;;9.52;71.60
60307;BME280;46155;52.364;6.580;2023-04-25T12:18:10;101219.34;;;9.70;72.39
60307;BME280;46155;52.364;6.580;2023-04-25T12:20:36;101231.28;;;9.78;73.62
60307;BME280;46155;52.364;6.580;2023-04-25T12:23:05;101225.59;;;9.72;69.21
60307;BME280;46155;52.364;6.580;2023-04-25T12:25:40;101223.75;;;9.34;71.38
60307;BME280;46155;52.364;6.580;2023-04-25T12:31:05;101245.38;;;9.43;65.69
60307;BME280;46155;52.364;6.580;2023-04-25T12:33:35;101244.25;;;9.40;65.26
60307;BME280;46155;52.364;6.580;2023-04-25T12:36:02;101249.28;;;9.37;66.11
60307;BME280;46155;52.364;6.580;2023-04-25T12:38:39;101238.25;;;9.29;68.62
60307;BME280;46155;52.364;6.580;2023-04-25T12:41:06;101237.41;;;9.42;72.27
60307;BME280;46155;52.364;6.580;2023-04-25T12:43:31;101263.81;;;9.69;71.33
60307;BME280;46155;52.364;6.580;2023-04-25T12:45:57;101269.22;;;9.35;70.31
60307;BME280;46155;52.364;6.580;2023-04-25T12:48:23;101268.19;;;8.97;70.83
60307;BME280;46155;52.364;6.580;2023-04-25T12:50:50;101278.41;;;8.70;75.58
60307;BME280;46155;52.364;6.580;2023-04-25T12:55:42;101259.88;;;8.33;70.75
60307;BME280;46155;52.364;6.580;2023-04-25T12:58:07;101246.69;;;8.32;70.08
60307;BME280;46155;52.364;6.580;2023-04-25T13:00:33;101261.31;;;8.52;74.36
60307;BME280;46155;52.364;6.580;2023-04-25T13:02:58;101258.53;;;8.60;73.87
60307;BME280;46155;52.364;6.580;2023-04-25T13:05:24;101263.31;;;8.78;73.96
60307;BME280;46155;52.364;6.580;2023-04-25T13:07:50;101252.25;;;8.94;73.36
60307;BME280;46155;52.364;6.580;2023-04-25T13:10:16;101254.31;;;9.10;70.26
60307;BME280;46155;52.364;6.580;2023-04-25T13:12:43;101254.78;;;9.16;71.43
60307;BME280;46155;52.364;6.580;2023-04-25T13:15:09;101251.88;;;9.37;72.56
60307;BME280;46155;52.364;6.580;2023-04-25T13:17:36;101254.78;;;9.65;71.55
60307;BME280;46155;52.364;6.580;2023-04-25T13:20:01;101271.13;;;9.49;70.03
60307;BME280;46155;52.364;6.580;2023-04-25T13:22:29;101270.50;;;9.16;69.30
60307;BME280;46155;52.364;6.580;2023-04-25T13:24:54;101271.84;;;9.11;70.55
60307;BME280;46155;52.364;6.580;2023-04-25T13:27:19;101272.53;;;9.08;72.79
60307;BME280;46155;52.364;6.580;2023-04-25T13:29:45;101274.78;;;9.39;70.25
60307;BME280;46155;52.364;6.580;2023-04-25T13:32:10;101266.84;;;9.14;69.71
60307;BME280;46155;52.364;6.580;2023-04-25T13:34:35;101272.28;;;9.41;69.51
60307;BME280;46155;52.364;6.580;2023-04-25T13:37:00;101269.31;;;9.48;68.56
60307;BME280;46155;52.364;6.580;2023-04-25T13:39:26;101268.94;;;9.67;68.59
60307;BME280;46155;52.364;6.580;2023-04-25T13:41:51;101262.44;;;9.62;66.90
60307;BME280;46155;52.364;6.580;2023-04-25T13:44:16;101274.34;;;9.21;66.52
60307;BME280;46155;52.364;6.580;2023-04-25T13:46:42;101274.75;;;9.63;68.25
60307;BME280;46155;52.364;6.580;2023-04-25T13:49:07;101274.97;;;9.66;66.78
60307;BME280;46155;52.364;6.580;2023-04-25T13:51:32;101284.84;;;9.82;62.36
60307;BME280;46155;52.364;6.580;2023-04-25T13:53:58;101281.09;;;9.78;62.11
60307;BME280;46155;52.364;6.580;2023-04-25T13:56:23;101287.28;;;9.55;60.29
60307;BME280;46155;52.364;6.580;2023-04-25T13:58:50;101287.06;;;9.52;63.22
60307;BME280;46155;52.364;6.580;2023-04-25T14:01:15;101281.47;;;9.59;61.76
60307;BME280;46155;52.364;6.580;2023-04-25T14:03:40;101288.66;;;9.62;60.66
60307;BME280;46155;52.364;6.580;2023-04-25T14:06:06;101292.28;;;9.76;62.39
60307;BME280;46155;52.364;6.580;2023-04-25T14:08:31;101283.16;;;9.82;61.33
60307;BME280;46155;52.364;6.580;2023-04-25T14:10:57;101284.56;;;9.65;63.01
60307;BME280;46155;52.364;6.580;2023-04-25T14:13:22;101284.72;;;9.80;64.92
60307;BME280;46155;52.364;6.580;2023-04-25T14:15:48;101289.81;;;10.03;65.16
60307;BME280;46155;52.364;6.580;2023-04-25T14:18:15;101281.56;;;10.10;63.40
60307;BME280;46155;52.364;6.580;2023-04-25T14:20:40;101281.88;;;10.14;63.11
60307;BME280;46155;52.364;6.580;2023-04-25T14:23:06;101267.84;;;10.14;63.38
60307;BME280;46155;52.364;6.580;2023-04-25T14:25:31;101278.47;;;10.15;65.26
60307;BME280;46155;52.364;6.580;2023-04-25T14:27:57;101277.31;;;10.12;63.99
60307;BME280;46155;52.364;6.580;2023-04-25T14:30:22;101295.94;;;10.15;63.17
60307;BME280;46155;52.364;6.580;2023-04-25T14:32:50;101283.84;;;9.80;64.38
60307;BME280;46155;52.364;6.580;2023-04-25T14:35:16;101318.84;;;9.69;67.75
60307;BME280;46155;52.364;6.580;2023-04-25T14:37:41;101329.69;;;9.61;70.51
60307;BME280;46155;52.364;6.580;2023-04-25T14:40:07;101330.06;;;9.30;74.50
60307;BME280;46155;52.364;6.580;2023-04-25T14:42:36;101336.94;;;8.83;78.42
60307;BME280;46155;52.364;6.580;2023-04-25T14:45:03;101338.78;;;8.72;80.43
60307;BME280;46155;52.364;6.580;2023-04-25T14:47:28;101331.63;;;8.47;80.77
60307;BME280;46155;52.364;6.580;2023-04-25T14:49:53;101323.72;;;8.35;83.88
60307;BME280;46155;52.364;6.580;2023-04-25T14:52:20;101316.97;;;8.27;85.34
60307;BME280;46155;52.364;6.580;2023-04-25T14:54:46;101325.66;;;8.38;83.68
60307;BME280;46155;52.364;6.580;2023-04-25T14:57:12;101322.88;;;8.24;81.73
60307;BME280;46155;52.364;6.580;2023-04-25T14:59:38;101321.75;;;8.33;80.85
60307;BME280;46155;52.364;6.580;2023-04-25T15:02:04;101314.69;;;8.32;80.63
60307;BME280;46155;52.364;6.580;2023-04-25T15:04:29;101311.84;;;8.51;75.20
60307;BME280;46155;52.364;6.580;2023-04-25T15:06:54;101324.19;;;8.64;75.29
60307;BME280;46155;52.364;6.580;2023-04-25T15:09:20;101314.31;;;8.83;76.54
60307;BME280;46155;52.364;6.580;2023-04-25T15:11:45;101309.47;;;9.11;75.75
60307;BME280;46155;52.364;6.580;2023-04-25T15:14:10;101332.78;;;8.96;71.63
60307;BME280;46155;52.364;6.580;2023-04-25T15:16:36;101320.47;;;8.95;71.51
60307;BME280;46155;52.364;6.580;2023-04-25T15:19:01;101329.22;;;8.84;69.06
60307;BME280;46155;52.364;6.580;2023-04-25T15:21:30;101329.03;;;9.05;70.70
60307;BME280;46155;52.364;6.580;2023-04-25T15:23:55;101330.19;;;9.20;62.56
60307;BME280;46155;52.364;6.580;2023-04-25T15:26:21;101328.53;;;8.99;62.89
60307;BME280;46155;52.364;6.580;2023-04-25T15:28:47;101320.56;;;8.85;62.31
60307;BME280;46155;52.364;6.580;2023-04-25T15:31:12;101326.06;;;9.00;65.74
60307;BME280;46155;52.364;6.580;2023-04-25T15:33:37;101331.41;;;9.25;65.66
60307;BME280;46155;52.364;6.580;2023-04-25T15:36:03;101329.25;;;9.08;66.53
60307;BME280;46155;52.364;6.580;2023-04-25T15:38:28;101317.84;;;8.84;64.78
60307;BME280;46155;52.364;6.580;2023-04-25T15:40:53;101339.84;;;8.98;65.73
60307;BME280;46155;52.364;6.580;2023-04-25T15:43:19;101330.47;;;8.89;68.40
60307;BME280;46155;52.364;6.580;2023-04-25T15:45:44;101330.59;;;9.03;67.78
60307;BME280;46155;52.364;6.580;2023-04-25T15:48:10;101342.47;;;8.98;68.79
60307;BME280;46155;52.364;6.580;2023-04-25T15:50:35;101351.09;;;9.08;69.47
60307;BME280;46155;52.364;6.580;2023-04-25T15:53:01;101337.00;;;8.94;71.44
60307;BME280;46155;52.364;6.580;2023-04-25T15:55:26;101352.59;;;9.05;73.59
60307;BME280;46155;52.364;6.580;2023-04-25T15:57:52;101361.56;;;8.96;71.14
60307;BME280;46155;52.364;6.580;2023-04-25T16:00:18;101370.88;;;8.81;71.71
60307;BME280;46155;52.364;6.580;2023-04-25T16:02:46;101363.56;;;8.77;73.22
60307;BME280;46155;52.364;6.580;2023-04-25T16:05:12;101345.88;;;8.51;73.60
60307;BME280;46155;52.364;6.580;2023-04-25T16:07:40;101361.06;;;8.67;73.13
60307;BME280;46155;52.364;6.580;2023-04-25T16:10:06;101359.44;;;8.69;73.83
60307;BME280;46155;52.364;6.580;2023-04-25T16:12:32;101363.22;;;8.60;73.87
60307;BME280;46155;52.364;6.580;2023-04-25T16:14:57;101361.84;;;8.66;73.62